Terminal Aerodrome Forecast
Issued by NWS Springfield, MO

Home | Current Version | Previous Version | Text Only | Print | Product List | Glossary On
Versions: 1 2 3 4 5 6 7 8 9 10 11 12 13 14 15 16 17 18 19 20 21 22 23 24
000
FTUS43 KSGF 150800 AAA
TAFSGF
TAF AMD
KSGF 150817Z 1508/1606 13013G21KT P6SM VCSH SCT025 OVC060
     FM151100 16015G25KT P6SM BKN025 BKN060
     FM151500 21018G25KT P6SM SCT025 BKN100
     FM152000 24018G25KT P6SM BKN100
     FM160000 28015G22KT P6SM BKN050=

USA.gov is the U.S. government's official web portal to all federal, state and local government web resources and services.